createdAt,value
2022-09-01T00:02:08.643Z,52.74
2022-09-01T00:04:38.929Z,52.59
2022-09-01T00:07:08.160Z,53.29
2022-09-01T00:09:36.089Z,53.15
2022-09-01T00:12:04.434Z,53.40
2022-09-01T00:14:35.629Z,53.87
2022-09-01T00:17:06.709Z,53.67
2022-09-01T00:19:33.984Z,53.83
2022-09-01T00:22:00.643Z,53.63
2022-09-01T00:24:27.736Z,53.80
2022-09-01T00:26:55.153Z,54.30
2022-09-01T00:29:22.872Z,53.62
2022-09-01T00:31:49.871Z,53.99
2022-09-01T00:34:16.846Z,53.91
2022-09-01T00:36:44.414Z,54.20
2022-09-01T00:39:11.382Z,53.92
2022-09-01T00:41:39.967Z,53.74
2022-09-01T00:44:11.885Z,53.63
2022-09-01T00:46:47.389Z,54.08
2022-09-01T00:49:22.435Z,54.66
2022-09-01T00:51:53.119Z,54.72
2022-09-01T00:54:23.255Z,55.17
2022-09-01T00:56:53.057Z,54.67
2022-09-01T00:59:26.309Z,54.22
2022-09-01T01:01:53.354Z,54.54
2022-09-01T01:04:20.488Z,54.60
2022-09-01T01:06:58.419Z,54.72
2022-09-01T01:09:27.196Z,54.07
2022-09-01T01:11:54.898Z,54.79
2022-09-01T01:14:21.428Z,55.08
2022-09-01T01:16:50.760Z,54.59
2022-09-01T01:19:50.271Z,55.20
2022-09-01T01:22:39.056Z,54.94
2022-09-01T01:25:05.894Z,56.09
2022-09-01T01:27:42.799Z,55.61
2022-09-01T01:30:11.781Z,55.81
2022-09-01T01:32:43.234Z,56.26
2022-09-01T01:35:16.264Z,56.03
2022-09-01T01:37:49.049Z,56.67
2022-09-01T01:40:18.906Z,57.38
2022-09-01T01:42:47.996Z,56.96
2022-09-01T01:45:19.848Z,58.51
2022-09-01T01:47:53.306Z,57.79
2022-09-01T01:50:22.267Z,57.52
2022-09-01T01:52:48.833Z,57.62
2022-09-01T01:55:27.876Z,57.41
2022-09-01T01:57:54.774Z,57.82
2022-09-01T02:00:30.110Z,57.86
2022-09-01T02:02:58.352Z,57.69
2022-09-01T02:05:28.895Z,58.13
2022-09-01T02:07:59.495Z,57.41
2022-09-01T02:10:30.865Z,57.88
2022-09-01T02:13:04.732Z,58.13
2022-09-01T02:15:42.606Z,57.72
2022-09-01T02:18:14.379Z,58.00
2022-09-01T02:20:41.889Z,57.86
2022-09-01T02:23:12.375Z,57.99
2022-09-01T02:26:05.268Z,58.35
2022-09-01T02:28:32.943Z,58.80
2022-09-01T02:30:59.850Z,58.86
2022-09-01T02:33:28.399Z,58.71
2022-09-01T02:35:58.098Z,59.24
2022-09-01T02:38:29.094Z,59.35
2022-09-01T02:40:58.326Z,58.68
2022-09-01T02:43:28.385Z,58.97
2022-09-01T02:45:59.560Z,58.84
2022-09-01T02:48:35.786Z,59.18
2022-09-01T02:51:09.304Z,59.43
2022-09-01T02:53:39.313Z,59.31
2022-09-01T02:56:12.001Z,59.78
2022-09-01T02:58:45.755Z,59.91
2022-09-01T03:01:25.450Z,60.05
2022-09-01T03:03:55.298Z,60.87
2022-09-01T03:06:24.215Z,60.43
2022-09-01T03:08:54.428Z,61.84
2022-09-01T03:11:24.304Z,60.78
2022-09-01T03:13:51.444Z,60.25
2022-09-01T03:16:19.076Z,60.17
2022-09-01T03:18:46.109Z,60.00
2022-09-01T03:21:17.153Z,60.71
2022-09-01T03:23:48.308Z,60.39
2022-09-01T03:26:18.484Z,60.67
2022-09-01T03:28:46.222Z,60.80
2022-09-01T03:31:13.269Z,60.41
2022-09-01T03:33:39.804Z,60.74
2022-09-01T03:36:14.270Z,60.88
2022-09-01T03:38:43.800Z,61.46
2022-09-01T03:41:12.910Z,62.94
2022-09-01T03:43:39.435Z,62.32
2022-09-01T03:46:22.188Z,62.48
2022-09-01T03:48:58.623Z,62.32
2022-09-01T03:51:25.915Z,62.14
2022-09-01T03:53:54.893Z,62.69
2022-09-01T03:56:27.281Z,64.07
2022-09-01T03:58:56.800Z,63.92
2022-09-01T04:01:24.125Z,64.11
2022-09-01T04:03:52.898Z,64.03
2022-09-01T04:06:21.992Z,64.64
2022-09-01T04:08:48.633Z,64.81
2022-09-01T04:11:18.761Z,64.78
2022-09-01T04:13:47.332Z,64.99
2022-09-01T04:16:39.757Z,64.81
2022-09-01T04:19:15.938Z,64.76
2022-09-01T04:21:44.808Z,64.92
2022-09-01T04:24:14.054Z,64.81
2022-09-01T04:26:41.159Z,64.80
2022-09-01T04:29:09.134Z,64.85
2022-09-01T04:31:37.919Z,65.70
2022-09-01T04:34:13.129Z,66.52
2022-09-01T04:36:44.812Z,66.49
2022-09-01T04:39:13.298Z,66.66
2022-09-01T04:41:46.077Z,66.49
2022-09-01T04:44:19.200Z,67.48
2022-09-01T04:46:50.603Z,67.46
2022-09-01T04:49:22.388Z,67.62
2022-09-01T04:51:54.015Z,68.46
2022-09-01T04:54:22.700Z,68.51
2022-09-01T04:56:51.173Z,68.63
2022-09-01T04:59:21.721Z,68.60
2022-09-01T05:01:50.401Z,68.97
2022-09-01T05:04:24.418Z,69.59
2022-09-01T05:06:59.651Z,70.78
2022-09-01T05:09:28.997Z,71.10
2022-09-01T05:11:56.457Z,71.55
2022-09-01T05:14:24.264Z,70.84
2022-09-01T05:16:51.157Z,71.49
2022-09-01T05:19:20.911Z,71.39
2022-09-01T05:21:48.068Z,71.34
2022-09-01T05:24:19.001Z,71.72
2022-09-01T05:26:47.341Z,71.85
2022-09-01T05:29:17.718Z,71.58
2022-09-01T05:31:46.963Z,71.76
2022-09-01T05:34:26.374Z,72.04
2022-09-01T05:36:57.218Z,71.91
2022-09-01T05:39:25.044Z,72.01
2022-09-01T05:41:52.774Z,70.99
2022-09-01T05:44:22.824Z,72.01
2022-09-01T05:46:50.582Z,71.63
2022-09-01T05:49:18.731Z,70.79
2022-09-01T05:51:58.993Z,70.75
2022-09-01T05:54:27.956Z,70.47
2022-09-01T05:57:08.394Z,69.69
2022-09-01T05:59:45.730Z,69.40
2022-09-01T06:02:12.392Z,69.13
2022-09-01T06:04:44.088Z,68.73
2022-09-01T06:07:16.311Z,69.43
2022-09-01T06:09:46.951Z,69.04
2022-09-01T06:12:18.385Z,69.42
2022-09-01T06:14:47.910Z,69.13
2022-09-01T06:17:16.466Z,68.84
2022-09-01T06:19:43.928Z,68.38
2022-09-01T06:22:10.836Z,68.48
2022-09-01T06:24:39.872Z,68.38
2022-09-01T06:27:09.961Z,68.54
2022-09-01T06:29:39.849Z,68.05
2022-09-01T06:32:09.782Z,68.70
2022-09-01T06:34:39.419Z,67.52
2022-09-01T06:37:06.985Z,68.01
2022-09-01T06:39:34.369Z,67.99
2022-09-01T06:42:04.697Z,66.56
2022-09-01T06:44:32.677Z,67.25
2022-09-01T06:47:02.011Z,67.14
2022-09-01T06:49:34.767Z,65.69
2022-09-01T06:52:05.794Z,65.38
2022-09-01T06:54:34.157Z,64.63
2022-09-01T06:58:03.427Z,64.57
2022-09-01T06:59:52.551Z,65.00
2022-09-01T07:05:07.997Z,62.90
2022-09-01T07:10:23.323Z,63.48
2022-09-01T07:13:11.445Z,63.03
2022-09-01T07:18:31.161Z,61.84
2022-09-01T07:21:09.359Z,61.70
2022-09-01T07:23:49.146Z,60.82
2022-09-01T07:26:35.274Z,59.55
2022-09-01T07:29:06.210Z,59.43
2022-09-01T07:34:41.912Z,60.28
2022-09-01T07:45:47.321Z,58.23
2022-09-01T07:48:36.015Z,58.41
2022-09-01T07:53:50.666Z,57.52
2022-09-01T07:56:20.868Z,56.82
2022-09-01T07:58:49.509Z,57.22
2022-09-01T08:01:26.121Z,56.30
2022-09-01T08:03:58.860Z,56.39
2022-09-01T08:06:28.078Z,55.82
2022-09-01T08:08:57.461Z,54.67
2022-09-01T08:11:58.183Z,55.25
2022-09-01T08:14:18.163Z,54.81
2022-09-01T08:16:53.077Z,54.76
2022-09-01T08:19:20.064Z,54.32
2022-09-01T08:21:46.481Z,54.15
2022-09-01T08:24:14.251Z,54.09
2022-09-01T08:26:40.710Z,53.70
2022-09-01T08:29:07.348Z,52.09
2022-09-01T08:31:35.647Z,52.78
2022-09-01T08:34:05.392Z,52.75
2022-09-01T08:36:32.587Z,52.09
2022-09-01T08:38:59.169Z,52.53
2022-09-01T08:41:49.836Z,52.05
2022-09-01T08:44:25.556Z,51.85
2022-09-01T08:46:59.981Z,51.53
2022-09-01T08:49:27.619Z,51.22
2022-09-01T08:52:01.268Z,51.25
2022-09-01T08:54:37.404Z,51.62
2022-09-01T08:57:14.839Z,50.98
2022-09-01T08:59:41.295Z,50.42
2022-09-01T09:02:32.532Z,50.23
2022-09-01T09:05:27.992Z,50.18
2022-09-01T09:08:12.684Z,49.48
2022-09-01T09:10:50.974Z,49.20
2022-09-01T09:13:55.998Z,49.54
2022-09-01T09:16:31.992Z,49.30
2022-09-01T09:19:01.096Z,48.62
2022-09-01T09:21:38.076Z,48.06
2022-09-01T09:24:21.755Z,47.00
2022-09-01T09:26:51.276Z,46.94
2022-09-01T09:29:18.749Z,47.03
2022-09-01T09:31:51.492Z,46.39
2022-09-01T09:34:34.908Z,46.49
2022-09-01T09:37:26.795Z,45.62
2022-09-01T09:40:15.947Z,45.53
2022-09-01T09:42:56.775Z,44.57
2022-09-01T09:45:23.317Z,45.44
2022-09-01T09:47:49.914Z,45.57
2022-09-01T09:50:29.966Z,45.90
2022-09-01T09:53:36.882Z,44.95
2022-09-01T09:56:16.339Z,44.79
2022-09-01T09:58:46.571Z,44.78
2022-09-01T10:01:24.487Z,45.06
2022-09-01T10:03:57.562Z,44.43
2022-09-01T10:06:34.645Z,44.08
2022-09-01T10:09:15.515Z,43.88
2022-09-01T10:11:44.972Z,43.88
2022-09-01T10:14:51.712Z,43.22
2022-09-01T10:17:13.357Z,43.44
2022-09-01T10:19:54.196Z,43.50
2022-09-01T10:22:23.132Z,43.13
2022-09-01T10:24:50.281Z,42.46
2022-09-01T10:27:25.254Z,42.18
2022-09-01T10:30:20.409Z,42.22
2022-09-01T10:33:07.472Z,41.39
2022-09-01T10:35:44.499Z,41.50
2022-09-01T10:38:26.895Z,41.12
2022-09-01T10:41:14.238Z,41.38
2022-09-01T10:43:47.277Z,41.91
2022-09-01T10:46:24.743Z,40.65
2022-09-01T10:48:55.761Z,41.34
2022-09-01T10:51:28.895Z,41.40
2022-09-01T10:54:03.925Z,42.87
2022-09-01T10:56:43.896Z,41.99
2022-09-01T10:59:43.436Z,42.10
2022-09-01T11:02:27.746Z,41.65
2022-09-01T11:04:58.945Z,41.75
2022-09-01T11:08:00.098Z,41.57
2022-09-01T11:10:53.984Z,41.26
2022-09-01T11:13:58.848Z,41.00
2022-09-01T11:16:50.190Z,41.83
2022-09-01T11:19:35.689Z,40.90
2022-09-01T11:22:18.671Z,41.92
2022-09-01T11:24:58.104Z,41.71
2022-09-01T11:27:48.453Z,41.06
2022-09-01T11:30:34.244Z,40.88
2022-09-01T11:33:21.052Z,40.25
2022-09-01T11:35:47.808Z,39.92
2022-09-01T11:38:18.574Z,40.76
2022-09-01T11:40:55.261Z,40.66
2022-09-01T11:43:24.254Z,41.26
2022-09-01T11:46:11.400Z,41.74
2022-09-01T11:48:39.305Z,40.59
2022-09-01T11:51:05.970Z,40.84
2022-09-01T11:53:32.767Z,40.39
2022-09-01T11:56:17.425Z,40.47
2022-09-01T11:58:45.709Z,40.00
2022-09-01T12:01:14.335Z,39.92
2022-09-01T12:03:41.240Z,39.53
2022-09-01T12:06:10.300Z,39.20
2022-09-01T12:08:40.393Z,38.87
2022-09-01T12:11:18.507Z,39.43
2022-09-01T12:14:10.892Z,38.63
2022-09-01T12:16:42.096Z,40.33
2022-09-01T12:19:22.020Z,38.47
2022-09-01T12:22:00.360Z,37.86
2022-09-01T12:24:31.096Z,38.25
2022-09-01T12:26:59.013Z,37.74
2022-09-01T12:29:28.899Z,38.05
2022-09-01T12:31:59.878Z,38.86
2022-09-01T12:34:40.119Z,36.23
2022-09-01T12:37:06.747Z,36.43
2022-09-01T12:39:45.926Z,36.56
2022-09-01T12:42:19.319Z,36.39
2022-09-01T12:44:53.740Z,35.67
2022-09-01T12:47:40.868Z,36.50
2022-09-01T12:50:07.349Z,38.90
2022-09-01T12:52:52.348Z,36.86
2022-09-01T12:58:12.168Z,36.83
2022-09-01T13:01:00.293Z,35.53
2022-09-01T13:03:30.628Z,36.39
2022-09-01T13:05:59.974Z,36.03
2022-09-01T13:08:30.260Z,37.53
2022-09-01T13:11:06.617Z,37.23
2022-09-01T13:13:35.407Z,37.62
2022-09-01T13:16:10.353Z,36.30
2022-09-01T13:21:24.336Z,36.92
2022-09-01T13:23:50.935Z,38.04
2022-09-01T13:26:17.702Z,36.32
2022-09-01T13:28:45.956Z,35.62
2022-09-01T13:31:29.418Z,35.99
2022-09-01T13:34:20.511Z,34.76
2022-09-01T13:36:45.289Z,34.44
2022-09-01T13:39:15.465Z,35.75
2022-09-01T13:41:42.364Z,36.34
2022-09-01T13:44:10.418Z,37.30
2022-09-01T13:46:59.014Z,35.80
2022-09-01T13:52:10.287Z,36.17
2022-09-01T13:54:36.796Z,36.73
2022-09-01T13:57:04.301Z,35.75
2022-09-01T13:59:30.882Z,35.77
2022-09-01T14:01:57.508Z,35.29
2022-09-01T14:04:24.233Z,35.05
2022-09-01T14:06:50.732Z,35.50
2022-09-01T14:09:18.199Z,35.73
2022-09-01T14:11:44.956Z,35.56
2022-09-01T14:14:11.602Z,35.45
2022-09-01T14:16:38.187Z,34.52
2022-09-01T14:19:04.848Z,36.93
2022-09-01T14:21:31.489Z,35.07
2022-09-01T14:23:58.101Z,37.13
2022-09-01T14:26:27.171Z,35.46
2022-09-01T14:28:55.020Z,35.72
2022-09-01T14:31:22.209Z,36.76
2022-09-01T14:33:49.386Z,35.50
2022-09-01T14:36:24.795Z,35.75
2022-09-01T14:38:52.361Z,35.76
2022-09-01T14:41:21.612Z,36.35
2022-09-01T14:43:49.146Z,36.75
2022-09-01T14:46:16.996Z,35.75
2022-09-01T14:48:43.724Z,35.49
2022-09-01T14:51:20.812Z,35.08
2022-09-01T14:53:47.306Z,37.46
2022-09-01T14:56:16.215Z,35.80
2022-09-01T14:58:45.135Z,34.85
2022-09-01T15:01:32.801Z,33.08
2022-09-01T15:03:59.857Z,33.83
2022-09-01T15:06:26.331Z,33.71
2022-09-01T15:08:53.062Z,33.14
2022-09-01T15:11:20.816Z,34.40
2022-09-01T15:13:47.758Z,33.83
2022-09-01T15:16:18.467Z,34.41
2022-09-01T15:18:45.358Z,34.41
2022-09-01T15:21:39.041Z,35.07
2022-09-01T15:24:07.470Z,33.53
2022-09-01T15:26:35.733Z,34.83
2022-09-01T15:29:02.297Z,34.02
2022-09-01T15:31:33.148Z,34.23
2022-09-01T15:34:02.372Z,35.18
2022-09-01T15:36:30.433Z,34.66
2022-09-01T15:38:58.922Z,34.11
2022-09-01T15:41:28.570Z,34.69
2022-09-01T15:43:56.293Z,34.41
2022-09-01T15:46:23.297Z,35.79
2022-09-01T15:48:50.456Z,34.88
2022-09-01T15:51:23.021Z,34.98
2022-09-01T15:53:51.228Z,35.02
2022-09-01T15:56:20.610Z,35.35
2022-09-01T15:59:00.911Z,34.59
2022-09-01T16:01:30.758Z,35.05
2022-09-01T16:03:57.925Z,34.63
2022-09-01T16:06:24.641Z,34.37
2022-09-01T16:08:54.188Z,35.61
2022-09-01T16:11:25.929Z,35.51
2022-09-01T16:13:53.578Z,34.50
2022-09-01T16:16:32.086Z,34.98
2022-09-01T16:19:17.936Z,35.59
2022-09-01T16:22:03.235Z,35.15
2022-09-01T16:24:30.116Z,35.53
2022-09-01T16:26:57.415Z,35.45
2022-09-01T16:29:46.030Z,36.04
2022-09-01T16:32:13.215Z,35.89
2022-09-01T16:34:46.908Z,35.34
2022-09-01T16:37:51.109Z,36.69
2022-09-01T16:40:36.088Z,35.77
2022-09-01T16:43:12.372Z,36.12
2022-09-01T16:45:58.047Z,36.32
2022-09-01T16:48:50.752Z,36.45
2022-09-01T16:51:43.412Z,36.08
2022-09-01T16:54:29.698Z,37.42
2022-09-01T16:57:16.726Z,36.52
2022-09-01T16:59:55.703Z,36.94
2022-09-01T17:02:22.467Z,38.16
2022-09-01T17:04:54.657Z,36.35
2022-09-01T17:07:29.644Z,36.49
2022-09-01T17:10:17.860Z,36.18
2022-09-01T17:12:49.250Z,36.42
2022-09-01T17:15:40.115Z,36.66
2022-09-01T17:18:22.838Z,36.71
2022-09-01T17:21:02.033Z,37.17
2022-09-01T17:23:35.484Z,37.02
2022-09-01T17:26:07.325Z,37.39
2022-09-01T17:28:44.053Z,37.14
2022-09-01T17:31:41.796Z,37.35
2022-09-01T17:34:31.493Z,37.15
2022-09-01T17:37:18.512Z,37.40
2022-09-01T17:40:07.645Z,37.86
2022-09-01T17:42:58.044Z,36.71
2022-09-01T17:45:54.124Z,37.50
2022-09-01T17:48:30.969Z,37.65
2022-09-01T17:51:06.119Z,37.67
2022-09-01T17:53:43.432Z,37.76
2022-09-01T17:56:19.072Z,37.60
2022-09-01T17:59:15.147Z,37.46
2022-09-01T18:01:50.374Z,37.59
2022-09-01T18:04:47.760Z,37.37
2022-09-01T18:07:38.622Z,37.80
2022-09-01T18:10:11.531Z,37.99
2022-09-01T18:12:39.847Z,38.21
2022-09-01T18:15:19.048Z,38.61
2022-09-01T18:18:00.469Z,38.35
2022-09-01T18:20:32.642Z,38.60
2022-09-01T18:23:06.883Z,38.53
2022-09-01T18:25:42.261Z,38.39
2022-09-01T18:28:09.949Z,39.00
2022-09-01T18:30:53.137Z,38.53
2022-09-01T18:33:57.563Z,38.82
2022-09-01T18:36:52.277Z,39.06
2022-09-01T18:39:31.574Z,39.43
2022-09-01T18:42:16.845Z,39.09
2022-09-01T18:45:05.509Z,39.15
2022-09-01T18:47:35.395Z,39.79
2022-09-01T18:50:20.548Z,40.83
2022-09-01T18:52:56.358Z,39.82
2022-09-01T18:55:32.084Z,40.49
2022-09-01T18:58:05.157Z,40.36
2022-09-01T19:00:47.537Z,39.97
2022-09-01T19:03:37.710Z,40.02
2022-09-01T19:06:07.213Z,40.91
2022-09-01T19:08:51.752Z,40.90
2022-09-01T19:11:45.354Z,41.28
2022-09-01T19:14:42.398Z,40.67
2022-09-01T19:17:45.899Z,41.34
2022-09-01T19:20:23.441Z,41.07
2022-09-01T19:23:05.278Z,41.24
2022-09-01T19:25:36.474Z,40.98
2022-09-01T19:28:14.614Z,41.29
2022-09-01T19:31:00.063Z,41.14
2022-09-01T19:33:34.739Z,41.34
2022-09-01T19:36:07.134Z,41.66
2022-09-01T19:38:33.603Z,41.61
2022-09-01T19:41:27.119Z,41.59
2022-09-01T19:44:01.687Z,41.94
2022-09-01T19:46:36.717Z,42.08
2022-09-01T19:49:23.233Z,42.07
2022-09-01T19:52:32.211Z,42.43
2022-09-01T19:55:06.788Z,42.65
2022-09-01T19:57:39.801Z,42.44
2022-09-01T20:00:18.034Z,42.41
2022-09-01T20:03:01.110Z,42.88
2022-09-01T20:05:37.322Z,42.49
2022-09-01T20:08:08.542Z,43.27
2022-09-01T20:10:55.273Z,43.02
2022-09-01T20:13:35.118Z,43.27
2022-09-01T20:16:09.208Z,43.44
2022-09-01T20:18:49.781Z,43.21
2022-09-01T20:21:21.278Z,42.95
2022-09-01T20:23:54.353Z,43.16
2022-09-01T20:26:26.888Z,43.78
2022-09-01T20:29:17.085Z,43.33
2022-09-01T20:31:50.056Z,43.13
2022-09-01T20:34:42.059Z,43.75
2022-09-01T20:37:22.198Z,43.45
2022-09-01T20:40:00.501Z,43.83
2022-09-01T20:42:58.089Z,43.72
2022-09-01T20:45:27.361Z,44.04
2022-09-01T20:48:03.735Z,43.96
2022-09-01T20:50:30.145Z,43.59
2022-09-01T20:53:08.809Z,44.23
2022-09-01T20:55:59.680Z,43.87
2022-09-01T20:58:34.841Z,44.09
2022-09-01T21:01:19.266Z,44.06
2022-09-01T21:03:57.990Z,44.33
2022-09-01T21:06:53.388Z,44.13
2022-09-01T21:09:41.014Z,44.45
2022-09-01T21:12:14.227Z,44.58
2022-09-01T21:14:43.484Z,44.25
2022-09-01T21:17:18.713Z,44.41
2022-09-01T21:19:48.235Z,44.54
2022-09-01T21:22:21.273Z,44.53
2022-09-01T21:24:48.843Z,45.03
2022-09-01T21:27:24.823Z,45.38
2022-09-01T21:30:03.080Z,44.88
2022-09-01T21:32:31.492Z,44.68
2022-09-01T21:34:58.783Z,45.16
2022-09-01T21:37:27.282Z,44.65
2022-09-01T21:39:55.101Z,44.81
2022-09-01T21:42:25.778Z,45.18
2022-09-01T21:44:54.681Z,45.31
2022-09-01T21:47:21.718Z,45.16
2022-09-01T21:49:48.334Z,45.06
2022-09-01T21:52:15.026Z,45.07
2022-09-01T21:54:41.607Z,45.51
2022-09-01T21:57:08.506Z,45.45
2022-09-01T21:59:35.165Z,45.56
2022-09-01T22:02:01.817Z,45.40
2022-09-01T22:04:28.359Z,45.41
2022-09-01T22:06:54.878Z,45.59
2022-09-01T22:09:21.937Z,46.03
2022-09-01T22:11:50.164Z,46.14
2022-09-01T22:14:17.113Z,45.82
2022-09-01T22:16:43.679Z,46.06
2022-09-01T22:19:10.185Z,46.23
2022-09-01T22:21:37.869Z,46.13
2022-09-01T22:24:06.110Z,46.26
2022-09-01T22:26:33.681Z,46.21
2022-09-01T22:29:02.580Z,46.55
2022-09-01T22:31:30.500Z,46.97
2022-09-01T22:33:57.524Z,46.75
2022-09-01T22:36:40.386Z,46.97
2022-09-01T22:39:09.091Z,47.23
2022-09-01T22:41:36.466Z,47.06
2022-09-01T22:44:03.986Z,47.11
2022-09-01T22:46:31.887Z,47.06
2022-09-01T22:49:00.160Z,47.48
2022-09-01T22:51:28.007Z,47.37
2022-09-01T22:53:55.095Z,47.46
2022-09-01T22:56:28.670Z,47.09
2022-09-01T22:58:57.744Z,47.31
2022-09-01T23:01:27.076Z,47.69
2022-09-01T23:03:53.728Z,47.50
2022-09-01T23:06:27.648Z,47.97
2022-09-01T23:08:59.051Z,48.25
2022-09-01T23:11:26.397Z,48.29
2022-09-01T23:13:54.010Z,48.38
2022-09-01T23:16:22.239Z,48.60
2022-09-01T23:18:50.234Z,48.75
2022-09-01T23:21:21.569Z,48.73
2022-09-01T23:23:48.377Z,48.71
2022-09-01T23:26:24.278Z,48.83
2022-09-01T23:28:50.868Z,48.99
2022-09-01T23:31:21.865Z,48.60
2022-09-01T23:33:48.900Z,49.08
2022-09-01T23:36:20.667Z,48.57
2022-09-01T23:38:48.448Z,48.69
2022-09-01T23:41:18.871Z,48.87
2022-09-01T23:43:45.528Z,48.71
2022-09-01T23:46:24.061Z,48.91
2022-09-01T23:48:50.975Z,49.22
2022-09-01T23:51:20.840Z,49.01
2022-09-01T23:53:48.321Z,49.46
2022-09-01T23:56:18.209Z,49.42
2022-09-01T23:58:45.154Z,49.30
